Time;durP1;ratioP1;P1;durP2;ratioP2;P2;SDS_P1;SDS_P2;PMS_P1;PMS_P2;Temp;Humidity;BMP_temperature;BMP_pressure;BME280_temperature;BME280_humidity;BME280_pressure;Samples;Min_cycle;Max_cycle;Signal;HPM_P1;HPM_P2
2021/11/22 00:00:25;;;;;;;0.30;0.20;;;;;;;8.72;100.00;100165.06;5068141;28;20529;-77
2021/11/22 00:02:53;;;;;;;0.33;0.33;;;;;;;8.71;100.00;100158.03;5046555;28;20455;-77
2021/11/22 00:05:20;;;;;;;0.30;0.20;;;;;;;8.59;100.00;100162.69;5050405;28;20469;-77
2021/11/22 00:07:47;;;;;;;2.07;1.87;;;;;;;8.60;100.00;100160.91;5045593;28;20509;-77
2021/11/22 00:10:13;;;;;;;0.30;0.20;;;;;;;8.59;100.00;100170.63;5049450;28;20889;-77
2021/11/22 00:12:40;;;;;;;0.30;0.20;;;;;;;8.39;100.00;100175.50;5044873;28;20504;-77
2021/11/22 00:15:10;;;;;;;0.30;0.17;;;;;;;8.58;100.00;100166.25;5041312;28;21362;-76
2021/11/22 00:17:38;;;;;;;0.30;0.20;;;;;;;8.42;100.00;100172.78;5045072;28;20856;-76
2021/11/22 00:20:11;;;;;;;0.30;0.20;;;;;;;8.32;100.00;100165.91;5048378;28;20499;-76
2021/11/22 00:22:38;;;;;;;0.30;0.20;;;;;;;8.21;100.00;100170.56;5047592;28;20443;-75
2021/11/22 00:25:06;;;;;;;0.30;0.20;;;;;;;8.21;100.00;100168.78;5041456;28;20932;-76
2021/11/22 00:27:33;;;;;;;0.30;0.20;;;;;;;8.19;100.00;100167.94;5056248;28;20841;-75
2021/11/22 00:29:59;;;;;;;0.30;0.30;;;;;;;8.26;100.00;100176.66;5042714;28;20462;-75
2021/11/22 00:32:26;;;;;;;0.40;0.40;;;;;;;8.24;100.00;100178.47;5043037;28;20451;-76
2021/11/22 00:34:56;;;;;;;0.43;0.43;;;;;;;8.39;100.00;100177.28;5048977;28;20502;-76
2021/11/22 00:37:31;;;;;;;0.30;0.20;;;;;;;8.36;100.00;100175.59;5048238;28;20473;-76
2021/11/22 00:40:02;;;;;;;0.30;0.20;;;;;;;8.31;100.00;100185.34;5033920;28;20840;-76
2021/11/22 00:42:29;;;;;;;0.30;0.20;;;;;;;8.33;100.00;100176.47;5035551;28;20944;-76
2021/11/22 00:44:56;;;;;;;0.30;0.20;;;;;;;8.23;100.00;100188.19;5046350;28;20482;-75
2021/11/22 00:47:23;;;;;;;0.30;0.20;;;;;;;8.26;100.00;100190.75;5047498;28;20447;-76
2021/11/22 00:49:50;;;;;;;0.30;0.20;;;;;;;8.26;100.00;100187.25;5041916;28;21021;-76
2021/11/22 00:52:17;;;;;;;0.30;0.20;;;;;;;8.31;100.00;100204.75;5043369;28;20447;-76
2021/11/22 00:54:43;;;;;;;0.30;0.20;;;;;;;8.23;100.00;100198.78;5065112;28;20493;-76
2021/11/22 00:57:10;;;;;;;0.30;0.20;;;;;;;8.37;100.00;100198.53;5041682;28;20517;-76
2021/11/22 00:59:37;;;;;;;0.30;0.20;;;;;;;8.21;100.00;100204.97;5061609;28;20842;-76
2021/11/22 01:02:04;;;;;;;0.30;0.20;;;;;;;8.25;100.00;100209.31;5058240;28;20489;-76
2021/11/22 01:04:30;;;;;;;0.30;0.20;;;;;;;8.15;100.00;100211.28;5045029;28;20820;-76
2021/11/22 01:06:57;;;;;;;0.30;0.20;;;;;;;8.14;100.00;100213.97;5046797;28;20450;-76
2021/11/22 01:09:23;;;;;;;0.30;0.20;;;;;;;8.09;100.00;100211.41;5042107;28;20466;-76
2021/11/22 01:11:50;;;;;;;4.20;1.33;;;;;;;8.16;100.00;100220.97;5039710;28;20502;-76
2021/11/22 01:14:17;;;;;;;0.30;0.20;;;;;;;8.17;100.00;100217.41;5044038;28;20455;-76
2021/11/22 01:16:43;;;;;;;0.30;0.20;;;;;;;8.02;100.00;100223.00;5046576;28;20495;-76
2021/11/22 01:19:10;;;;;;;0.30;0.20;;;;;;;8.05;100.00;100224.72;5042975;28;20855;-76
2021/11/22 01:21:37;;;;;;;0.30;0.20;;;;;;;8.13;100.00;100221.03;5041133;28;20498;-76
2021/11/22 01:24:04;;;;;;;0.30;0.20;;;;;;;8.02;100.00;100230.94;5044240;28;20448;-76
2021/11/22 01:26:31;;;;;;;0.30;0.17;;;;;;;7.99;100.00;100229.25;5047467;28;20448;-76
2021/11/22 01:28:58;;;;;;;0.30;0.20;;;;;;;8.03;100.00;100225.63;5043144;28;20459;-76
2021/11/22 01:31:24;;;;;;;0.30;0.20;;;;;;;8.18;100.00;100229.75;5041664;28;20452;-76
2021/11/22 01:33:52;;;;;;;0.30;0.20;;;;;;;8.07;100.00;100238.78;5044420;28;20459;-76
2021/11/22 01:36:19;;;;;;;0.30;0.17;;;;;;;8.07;100.00;100241.44;5038901;28;20495;-76
2021/11/22 01:38:45;;;;;;;1.53;0.63;;;;;;;8.05;100.00;100240.59;5042379;28;20467;-76
2021/11/22 01:41:12;;;;;;;0.30;0.20;;;;;;;7.97;100.00;100248.72;5047190;28;20584;-76
2021/11/22 01:43:38;;;;;;;0.30;0.20;;;;;;;8.02;100.00;100254.78;5042980;28;20963;-76
2021/11/22 01:46:05;;;;;;;0.30;0.20;;;;;;;7.99;100.00;100253.06;5038956;28;20497;-76
2021/11/22 01:48:33;;;;;;;0.30;0.10;;;;;;;8.12;100.00;100253.69;5052576;28;20502;-76
2021/11/22 01:50:59;;;;;;;0.30;0.20;;;;;;;8.16;100.00;100258.03;5036192;28;20448;-76
2021/11/22 01:53:26;;;;;;;0.30;0.20;;;;;;;8.10;100.00;100246.69;5055723;28;20446;-76
2021/11/22 01:56:13;;;;;;;0.30;0.20;;;;;;;8.24;100.00;100256.13;5032439;28;20446;-76
2021/11/22 01:58:40;;;;;;;0.30;0.20;;;;;;;7.98;100.00;100253.09;5045983;28;20532;-76
2021/11/22 02:01:07;;;;;;;0.30;0.20;;;;;;;7.93;100.00;100252.28;5063877;28;20559;-76
2021/11/22 02:03:34;;;;;;;0.30;0.20;;;;;;;8.05;100.00;100265.28;5052017;28;20459;-76
2021/11/22 02:06:00;;;;;;;0.30;0.20;;;;;;;7.93;100.00;100266.38;5040309;28;20451;-76
2021/11/22 02:08:27;;;;;;;0.30;0.20;;;;;;;7.96;100.00;100276.06;5039785;28;20484;-75
2021/11/22 02:10:54;;;;;;;0.30;0.20;;;;;;;7.85;100.00;100278.03;5045531;28;20451;-76
2021/11/22 02:13:20;;;;;;;0.30;0.20;;;;;;;7.97;100.00;100275.16;5048803;28;20945;-76
2021/11/22 02:15:47;;;;;;;0.30;0.20;;;;;;;7.96;100.00;100286.66;5043620;28;20496;-76
2021/11/22 02:18:15;;;;;;;0.30;0.20;;;;;;;7.92;100.00;100285.81;5054333;28;20532;-76
2021/11/22 02:20:42;;;;;;;0.30;0.20;;;;;;;7.91;100.00;100283.19;5047823;28;20495;-76
2021/11/22 02:23:10;;;;;;;0.30;0.20;;;;;;;7.85;100.00;100278.03;5050261;28;20497;-76
2021/11/22 02:25:40;;;;;;;0.30;0.20;;;;;;;7.85;100.00;100280.69;5045341;28;20517;-76
2021/11/22 02:28:08;;;;;;;0.30;0.20;;;;;;;7.95;100.00;100282.28;5046323;28;20516;-76
2021/11/22 02:30:38;;;;;;;0.30;0.20;;;;;;;7.93;100.00;100281.41;5045885;28;20840;-76
2021/11/22 02:33:09;;;;;;;0.30;0.20;;;;;;;7.89;100.00;100290.31;5054532;28;20444;-76
2021/11/22 02:35:44;;;;;;;0.30;0.20;;;;;;;7.81;100.00;100287.81;5047296;28;20496;-76
2021/11/22 02:38:33;;;;;;;0.30;0.20;;;;;;;7.68;100.00;100296.84;5042403;28;20505;-75
2021/11/22 02:41:01;;;;;;;0.30;0.20;;;;;;;7.71;100.00;100304.72;5043505;28;20491;-76
2021/11/22 02:43:30;;;;;;;0.30;0.20;;;;;;;7.93;100.00;100294.63;5047222;28;20444;-76
2021/11/22 02:45:57;;;;;;;0.30;0.20;;;;;;;7.92;100.00;100306.13;5051796;28;20831;-76
2021/11/22 02:48:24;;;;;;;0.30;0.20;;;;;;;7.89;100.00;100298.25;5046733;28;20506;-76
2021/11/22 02:50:50;;;;;;;0.30;0.20;;;;;;;7.96;100.00;100303.41;5049454;28;20446;-76
2021/11/22 02:53:24;;;;;;;0.30;0.20;;;;;;;7.77;100.00;100311.69;5058281;28;20461;-76
2021/11/22 02:55:53;;;;;;;0.30;0.20;;;;;;;7.68;100.00;100302.16;5054555;28;20494;-76
2021/11/22 02:58:24;;;;;;;0.30;0.20;;;;;;;7.72;100.00;100303.81;5047202;28;21006;-76
2021/11/22 03:00:52;;;;;;;0.30;0.20;;;;;;;7.63;100.00;100303.97;5065010;28;20550;-76
2021/11/22 03:03:26;;;;;;;0.30;0.20;;;;;;;7.78;100.00;100303.72;5048262;28;20485;-76
2021/11/22 03:06:08;;;;;;;0.30;0.20;;;;;;;7.75;100.00;100310.84;5049126;28;20856;-76
2021/11/22 03:08:37;;;;;;;0.30;0.20;;;;;;;7.80;100.00;100312.50;5048457;28;20481;-76
2021/11/22 03:11:04;;;;;;;0.30;0.20;;;;;;;7.86;100.00;100317.69;5045352;28;20481;-76
2021/11/22 03:13:31;;;;;;;0.30;0.20;;;;;;;7.73;100.00;100316.16;5042351;28;20811;-76
2021/11/22 03:15:58;;;;;;;0.30;0.20;;;;;;;7.69;100.00;100309.19;5046668;28;20451;-76
2021/11/22 03:18:25;;;;;;;0.30;0.20;;;;;;;7.73;100.00;100310.88;5051795;28;20533;-76
2021/11/22 03:20:52;;;;;;;0.30;0.20;;;;;;;7.66;100.00;100312.72;5046651;28;20490;-76
2021/11/22 03:23:19;;;;;;;0.30;0.20;;;;;;;7.62;100.00;100316.31;5049822;28;21329;-75
2021/11/22 03:25:46;;;;;;;0.30;0.20;;;;;;;7.61;100.00;100325.16;5046989;28;20454;-75
2021/11/22 03:28:16;;;;;;;0.30;0.20;;;;;;;7.74;100.00;100331.13;5041712;28;20451;-76
2021/11/22 03:30:43;;;;;;;0.30;0.20;;;;;;;7.73;100.00;100329.38;5046795;28;20459;-76
2021/11/22 03:33:16;;;;;;;0.30;0.20;;;;;;;7.89;100.00;100332.63;5038316;28;20467;-76
2021/11/22 03:35:43;;;;;;;0.30;0.20;;;;;;;7.91;100.00;100339.66;5048471;28;20473;-75
2021/11/22 03:38:12;;;;;;;0.30;0.20;;;;;;;7.71;100.00;100339.13;5042673;28;20443;-75
2021/11/22 03:40:40;;;;;;;0.30;0.20;;;;;;;7.67;100.00;100338.28;5056347;28;20876;-76
2021/11/22 03:45:38;;;;;;;0.30;0.20;;;;;;;7.75;100.00;100338.16;5043701;28;20475;-75
2021/11/22 03:48:05;;;;;;;0.30;0.20;;;;;;;7.62;100.00;100339.25;5049580;28;20535;-76
2021/11/22 03:50:32;;;;;;;0.30;0.20;;;;;;;7.62;100.00;100348.06;5048480;28;20454;-76
2021/11/22 03:52:59;;;;;;;0.30;0.20;;;;;;;7.63;100.00;100341.00;5063506;28;20934;-76
2021/11/22 03:55:26;;;;;;;0.30;0.20;;;;;;;7.61;100.00;100348.09;5060472;28;20940;-75
2021/11/22 03:57:52;;;;;;;0.30;0.20;;;;;;;7.58;100.00;100356.09;5042535;28;20878;-76
2021/11/22 04:00:19;;;;;;;0.30;0.20;;;;;;;7.62;100.00;100368.34;5067921;28;20494;-76
2021/11/22 04:02:46;;;;;;;0.30;0.20;;;;;;;7.70;100.00;100361.19;5048571;28;21032;-76
2021/11/22 04:05:12;;;;;;;0.30;0.20;;;;;;;7.77;100.00;100373.41;5049528;28;20520;-75
2021/11/22 04:07:39;;;;;;;0.30;0.20;;;;;;;7.86;100.00;100369.75;5044051;28;20604;-76
2021/11/22 04:10:06;;;;;;;0.30;0.20;;;;;;;7.67;100.00;100370.03;5041022;28;20977;-75
2021/11/22 04:12:32;;;;;;;0.30;0.20;;;;;;;7.67;100.00;100388.53;5047263;28;20490;-76
2021/11/22 04:14:59;;;;;;;0.30;0.20;;;;;;;7.66;100.00;100388.56;5048799;28;20512;-75
2021/11/22 04:17:26;;;;;;;0.30;0.20;;;;;;;7.65;100.00;100394.75;5042848;28;20470;-76
2021/11/22 04:19:53;;;;;;;0.30;0.20;;;;;;;7.73;100.00;100409.63;5042144;28;20467;-75
2021/11/22 04:22:19;;;;;;;0.30;0.20;;;;;;;7.71;100.00;100400.84;5046570;28;20487;-76
2021/11/22 04:24:46;;;;;;;0.30;0.20;;;;;;;7.80;100.00;100401.59;5047065;28;20459;-76
2021/11/22 04:27:13;;;;;;;0.30;0.20;;;;;;;7.88;100.00;100418.22;5041959;28;20447;-76
2021/11/22 04:29:45;;;;;;;0.30;0.20;;;;;;;7.78;100.00;100425.44;5040151;28;20549;-76
2021/11/22 04:32:12;;;;;;;0.30;0.20;;;;;;;7.80;100.00;100418.34;5047501;28;20870;-76
2021/11/22 04:34:38;;;;;;;0.30;0.20;;;;;;;7.66;100.00;100430.88;5038882;28;20508;-76
2021/11/22 04:37:06;;;;;;;0.30;0.20;;;;;;;7.90;100.00;100433.19;5043931;28;20451;-76
2021/11/22 04:39:34;;;;;;;0.30;0.20;;;;;;;7.71;100.00;100427.31;5046663;28;20480;-76
2021/11/22 04:42:01;;;;;;;0.30;0.20;;;;;;;7.63;100.00;100429.16;5043760;28;21832;-77
2021/11/22 04:44:27;;;;;;;0.30;0.20;;;;;;;7.69;100.00;100434.41;5036832;28;20534;-75
2021/11/22 04:46:54;;;;;;;0.30;0.20;;;;;;;7.67;100.00;100437.94;5044038;28;20520;-75
2021/11/22 04:49:21;;;;;;;0.30;0.20;;;;;;;7.65;100.00;100445.88;5039754;28;20528;-75
2021/11/22 04:51:47;;;;;;;0.30;0.20;;;;;;;7.70;100.00;100446.72;5041185;28;20498;-75
2021/11/22 04:54:14;;;;;;;0.30;0.20;;;;;;;7.72;100.00;100444.06;5064052;28;20799;-75
2021/11/22 04:56:40;;;;;;;0.30;0.20;;;;;;;7.84;100.00;100454.47;5041860;28;20506;-75
2021/11/22 04:59:07;;;;;;;0.30;0.20;;;;;;;7.68;100.00;100456.47;5041475;28;20515;-75
2021/11/22 05:01:33;;;;;;;1.53;1.43;;;;;;;7.63;100.00;100455.63;5060994;28;20486;-75
2021/11/22 05:04:00;;;;;;;0.30;0.20;;;;;;;7.83;100.00;100458.00;5047680;28;20547;-75
2021/11/22 05:06:27;;;;;;;0.30;0.20;;;;;;;7.87;100.00;100467.63;5044666;28;20803;-75
2021/11/22 05:08:54;;;;;;;0.30;0.20;;;;;;;7.73;100.00;100465.19;5038028;28;20462;-75
2021/11/22 05:11:20;;;;;;;0.30;0.20;;;;;;;7.59;100.00;100461.00;5040575;28;20444;-75
2021/11/22 05:13:47;;;;;;;0.30;0.30;;;;;;;7.77;100.00;100466.00;5037304;28;20450;-75
2021/11/22 05:16:13;;;;;;;0.20;0.20;;;;;;;7.59;100.00;100467.16;5039904;28;20546;-75
2021/11/22 05:18:40;;;;;;;0.20;0.20;;;;;;;7.46;100.00;100470.84;5050523;28;20474;-75
2021/11/22 05:21:06;;;;;;;0.30;0.10;;;;;;;7.83;100.00;100473.00;5040132;28;20452;-75
2021/11/22 05:23:33;;;;;;;0.30;0.20;;;;;;;7.50;100.00;100477.84;5038674;28;20458;-75
2021/11/22 05:26:00;;;;;;;0.30;0.17;;;;;;;7.49;100.00;100481.38;5040205;28;20829;-75
2021/11/22 05:28:27;;;;;;;0.30;0.20;;;;;;;7.66;100.00;100478.50;5051762;28;20478;-75
2021/11/22 05:30:54;;;;;;;0.30;0.20;;;;;;;7.73;100.00;100488.13;5047821;28;20514;-75
2021/11/22 05:33:20;;;;;;;0.30;0.20;;;;;;;7.54;100.00;100481.31;5051037;28;20450;-75
2021/11/22 05:35:47;;;;;;;0.30;0.20;;;;;;;7.59;100.00;100493.59;5039487;28;20456;-74
2021/11/22 05:38:14;;;;;;;0.30;0.13;;;;;;;7.50;100.00;100492.84;5045682;28;20534;-75
2021/11/22 05:40:40;;;;;;;0.30;0.17;;;;;;;7.46;100.00;100501.72;5032964;28;20455;-75
2021/11/22 05:43:07;;;;;;;0.30;0.20;;;;;;;7.56;100.00;100506.00;5039429;28;20529;-75
2021/11/22 05:45:34;;;;;;;0.23;0.10;;;;;;;7.12;100.00;100502.09;5039327;28;20455;-75
2021/11/22 05:48:01;;;;;;;0.30;0.20;;;;;;;6.95;100.00;100507.56;5044055;28;20448;-75
2021/11/22 05:50:27;;;;;;;0.30;0.20;;;;;;;7.03;100.00;100518.06;5032613;28;20522;-75
2021/11/22 05:52:56;;;;;;;0.30;0.10;;;;;;;7.10;100.00;100528.56;5059188;28;20472;-75
2021/11/22 05:55:44;;;;;;;0.30;0.20;;;;;;;7.02;100.00;100529.53;5044735;28;20452;-75
2021/11/22 05:58:12;;;;;;;0.30;0.20;;;;;;;6.87;100.00;100529.69;5032210;28;20455;-75
2021/11/22 06:00:39;;;;;;;0.30;0.20;;;;;;;6.81;100.00;100536.78;5048736;28;20532;-75
2021/11/22 06:03:06;;;;;;;0.30;0.20;;;;;;;6.86;100.00;100544.69;5053136;28;21037;-75
2021/11/22 06:05:33;;;;;;;0.40;0.40;;;;;;;6.72;100.00;100541.28;5052364;28;20455;-74
2021/11/22 06:08:00;;;;;;;0.30;0.20;;;;;;;6.78;100.00;100546.50;5046873;28;20443;-75
2021/11/22 06:10:27;;;;;;;0.30;0.20;;;;;;;6.63;100.00;100554.56;5042788;28;20511;-75
2021/11/22 06:12:54;;;;;;;0.30;0.20;;;;;;;6.73;100.00;100543.03;5045531;28;20878;-75
2021/11/22 06:15:21;;;;;;;0.30;0.20;;;;;;;6.56;100.00;100551.06;5048250;28;20451;-75
2021/11/22 06:17:48;;;;;;;0.30;0.20;;;;;;;6.42;100.00;100555.59;5047170;28;20512;-75
2021/11/22 06:20:15;;;;;;;0.30;0.20;;;;;;;6.52;100.00;100568.72;5042139;28;20471;-75
2021/11/22 06:22:42;;;;;;;0.30;0.20;;;;;;;6.48;100.00;100568.75;5045130;28;20491;-75
2021/11/22 06:25:09;;;;;;;0.30;0.20;;;;;;;6.49;100.00;100574.03;5040425;28;20833;-75
2021/11/22 06:27:37;;;;;;;0.30;0.20;;;;;;;6.47;100.00;100580.22;5044789;28;20481;-75
2021/11/22 06:30:06;;;;;;;0.30;0.10;;;;;;;6.44;100.00;100578.47;5047892;28;20525;-75
2021/11/22 06:32:33;;;;;;;0.30;0.20;;;;;;;6.51;100.00;100584.56;5053025;28;20492;-75
2021/11/22 06:35:00;;;;;;;0.30;0.20;;;;;;;6.46;100.00;100597.81;5041190;28;20450;-75
2021/11/22 06:37:27;;;;;;;0.30;0.30;;;;;;;6.31;100.00;100599.69;5042883;28;20824;-75
2021/11/22 06:39:55;;;;;;;0.30;0.20;;;;;;;6.34;100.00;100608.47;5048925;28;20467;-75
2021/11/22 06:42:22;;;;;;;0.30;0.20;;;;;;;6.48;100.00;100611.00;5047809;28;20544;-74
2021/11/22 06:44:49;;;;;;;0.30;0.20;;;;;;;6.34;100.00;100615.50;5034786;28;20521;-75
2021/11/22 06:47:16;;;;;;;0.30;0.20;;;;;;;6.39;100.00;100618.97;5047694;28;20454;-75
2021/11/22 06:49:43;;;;;;;0.30;0.20;;;;;;;6.34;100.00;100621.66;5043331;28;20466;-75
2021/11/22 06:52:10;;;;;;;0.30;0.17;;;;;;;6.53;100.00;100622.41;5042642;28;20462;-75
2021/11/22 06:54:36;;;;;;;0.30;0.20;;;;;;;6.43;100.00;100637.41;5067587;28;20447;-75
2021/11/22 06:57:04;;;;;;;0.30;0.20;;;;;;;6.46;100.00;100626.88;5041633;28;20510;-75
2021/11/22 06:59:34;;;;;;;0.30;0.20;;;;;;;6.60;100.00;100644.38;5061915;28;20485;-75
2021/11/22 07:02:01;;;;;;;0.30;0.20;;;;;;;6.41;100.00;100643.59;5060103;28;20491;-75
2021/11/22 07:04:27;;;;;;;0.30;0.20;;;;;;;6.29;100.00;100643.66;5047187;28;20830;-75
2021/11/22 07:06:55;;;;;;;0.30;0.20;;;;;;;6.30;100.00;100650.69;5049144;28;20877;-75
2021/11/22 07:09:22;;;;;;;0.30;0.20;;;;;;;6.55;100.00;100654.97;5046670;28;20475;-75
2021/11/22 07:11:48;;;;;;;0.30;0.20;;;;;;;6.54;100.00;100662.00;5047231;28;20504;-75
2021/11/22 07:14:15;;;;;;;0.30;0.20;;;;;;;6.47;100.00;100662.94;5043524;28;20446;-75
2021/11/22 07:16:41;;;;;;;0.30;0.20;;;;;;;6.54;100.00;100666.41;5041632;28;20471;-75
2021/11/22 07:19:08;;;;;;;0.30;0.20;;;;;;;6.58;100.00;100668.16;5046179;28;20911;-75
2021/11/22 07:21:35;;;;;;;0.30;0.20;;;;;;;6.41;100.00;100676.16;5048181;28;20447;-75
2021/11/22 07:24:01;;;;;;;0.30;0.20;;;;;;;6.63;100.00;100676.94;5043021;28;20537;-75
2021/11/22 07:26:28;;;;;;;0.30;0.20;;;;;;;6.52;100.00;100690.19;5040272;28;20480;-75
2021/11/22 07:28:54;;;;;;;0.40;0.40;;;;;;;6.45;100.00;100691.13;5045672;28;20495;-75
2021/11/22 07:31:21;;;;;;;0.30;0.20;;;;;;;6.45;100.00;100693.75;5050441;28;20451;-75
2021/11/22 07:33:48;;;;;;;12.30;2.13;;;;;;;6.43;100.00;100697.28;5045800;28;20454;-75
2021/11/22 07:36:14;;;;;;;0.30;0.20;;;;;;;6.41;100.00;100701.69;5048132;28;20455;-75
2021/11/22 07:38:41;;;;;;;0.30;0.20;;;;;;;6.45;100.00;100706.97;5043505;28;20466;-75
2021/11/22 07:41:07;;;;;;;0.30;0.20;;;;;;;6.28;100.00;100700.88;5041513;28;20521;-75
2021/11/22 07:43:34;;;;;;;0.30;0.20;;;;;;;6.41;100.00;100705.22;5043747;28;20495;-75
2021/11/22 07:46:01;;;;;;;0.30;0.20;;;;;;;6.59;100.00;100717.47;5047008;28;20497;-75
2021/11/22 07:48:28;;;;;;;0.30;0.20;;;;;;;6.60;100.00;100718.34;5042951;28;20992;-75
2021/11/22 07:50:55;;;;;;;0.30;0.20;;;;;;;6.52;100.00;100718.38;5040074;28;20470;-75
2021/11/22 07:53:35;;;;;;;0.30;0.20;;;;;;;6.55;100.00;100720.97;5067390;28;20439;-75
2021/11/22 07:56:04;;;;;;;0.30;0.20;;;;;;;6.39;100.00;100729.88;5049073;28;20455;-75
2021/11/22 07:58:32;;;;;;;0.30;0.20;;;;;;;6.35;100.00;100733.41;5046231;28;20471;-75
2021/11/22 08:00:59;;;;;;;0.30;0.20;;;;;;;6.31;100.00;100740.47;5062796;28;20463;-75
2021/11/22 08:03:26;;;;;;;0.30;0.10;;;;;;;6.41;100.00;100733.38;5047293;28;20862;-75
2021/11/22 08:05:57;;;;;;;0.30;0.20;;;;;;;6.45;100.00;100746.56;5047235;28;20451;-75
2021/11/22 08:08:27;;;;;;;0.30;0.20;;;;;;;6.60;100.00;100756.19;5047490;28;20466;-74
2021/11/22 08:13:41;;;;;;;0.20;0.20;;;;;;;6.87;100.00;100762.22;5028527;28;20460;-75
2021/11/22 08:16:08;;;;;;;0.30;0.20;;;;;;;6.78;100.00;100766.66;5033948;28;20444;-75
2021/11/22 08:18:36;;;;;;;0.30;0.17;;;;;;;7.02;100.00;100767.41;5046958;28;20902;-75
2021/11/22 08:21:05;;;;;;;0.30;0.20;;;;;;;6.94;100.00;100770.06;5045447;28;20505;-75
2021/11/22 08:23:32;;;;;;;0.30;0.20;;;;;;;7.00;100.00;100785.03;5040561;28;20544;-75
2021/11/22 08:25:59;;;;;;;0.60;0.60;;;;;;;7.01;100.00;100784.16;5039906;28;20462;-75
2021/11/22 08:28:25;;;;;;;0.30;0.20;;;;;;;7.11;100.00;100785.81;5046863;28;20476;-75
2021/11/22 08:30:52;;;;;;;0.30;0.20;;;;;;;7.09;100.00;100784.97;5045841;28;20515;-74
2021/11/22 08:33:19;;;;;;;0.30;0.20;;;;;;;7.13;100.00;100787.59;5047979;28;20479;-75
2021/11/22 08:35:47;;;;;;;0.30;0.20;;;;;;;7.29;100.00;100787.47;5045173;28;20504;-75
2021/11/22 08:38:15;;;;;;;0.30;0.20;;;;;;;7.30;100.00;100797.16;5038735;28;20995;-75
2021/11/22 08:40:43;;;;;;;0.30;0.20;;;;;;;7.32;100.00;100798.03;5040328;28;20884;-75
2021/11/22 08:43:12;;;;;;;0.30;0.20;;;;;;;7.42;100.00;100792.66;5032207;28;20537;-75
2021/11/22 08:45:40;;;;;;;0.30;0.20;;;;;;;7.39;100.00;100794.44;5046657;28;20940;-75
2021/11/22 08:48:08;;;;;;;0.20;0.20;;;;;;;7.41;100.00;100803.25;5040943;28;20442;-75
2021/11/22 08:50:36;;;;;;;0.30;0.20;;;;;;;7.53;100.00;100805.78;5040073;28;20455;-75
2021/11/22 08:53:04;;;;;;;0.30;0.20;;;;;;;7.70;100.00;100795.97;5059709;28;20935;-74
2021/11/22 08:55:30;;;;;;;0.30;0.10;;;;;;;7.66;100.00;100814.50;5056731;28;20451;-75
2021/11/22 08:57:57;;;;;;;0.30;0.20;;;;;;;7.59;100.00;100826.03;5041130;28;20996;-75
2021/11/22 09:00:27;;;;;;;0.30;0.20;;;;;;;7.65;100.00;100837.44;5065301;28;20523;-75
2021/11/22 09:02:54;;;;;;;0.30;0.20;;;;;;;7.63;100.00;100830.41;5041569;28;20498;-75
2021/11/22 09:05:22;;;;;;;0.30;0.20;;;;;;;7.74;100.00;100833.84;5050495;28;20496;-77
2021/11/22 09:07:50;;;;;;;1.70;0.70;;;;;;;7.75;99.24;100840.91;5042413;28;20804;-75
2021/11/22 09:10:16;;;;;;;0.30;0.17;;;;;;;7.78;100.00;100840.00;5039644;28;20520;-75
2021/11/22 09:12:43;;;;;;;0.30;0.10;;;;;;;7.85;100.00;100842.59;5042971;28;20455;-75
2021/11/22 09:15:10;;;;;;;0.30;0.20;;;;;;;7.88;100.00;100855.78;5046348;28;20497;-75
2021/11/22 09:17:37;;;;;;;0.30;0.20;;;;;;;7.83;98.77;100849.66;5042611;28;21002;-75
2021/11/22 09:20:04;;;;;;;0.30;0.20;;;;;;;7.91;98.79;100849.59;5039311;28;20520;-75
2021/11/22 09:22:30;;;;;;;0.30;0.20;;;;;;;8.00;98.50;100858.34;5042679;28;20531;-75
2021/11/22 09:24:57;;;;;;;0.70;0.67;;;;;;;7.93;98.58;100861.03;5046120;28;20475;-75
2021/11/22 09:27:24;;;;;;;0.30;0.20;;;;;;;7.97;98.04;100865.44;5032860;28;20455;-75
2021/11/22 09:29:50;;;;;;;0.30;0.20;;;;;;;8.14;99.13;100866.16;5045678;28;20478;-74
2021/11/22 09:32:17;;;;;;;0.30;0.20;;;;;;;8.21;98.23;100872.25;5036806;28;20447;-75
2021/11/22 09:34:44;;;;;;;0.30;0.20;;;;;;;8.13;97.78;100877.63;5044489;28;20470;-75
2021/11/22 09:37:10;;;;;;;0.30;0.20;;;;;;;8.07;96.54;100880.31;5042317;28;20513;-75
2021/11/22 09:39:37;;;;;;;0.30;0.20;;;;;;;7.78;96.61;100885.84;5048004;28;20479;-75
2021/11/22 09:42:04;;;;;;;0.30;0.20;;;;;;;7.98;96.46;100893.66;5043676;28;20473;-75
2021/11/22 09:44:31;;;;;;;0.30;0.20;;;;;;;8.21;97.47;100885.50;5038786;28;20494;-75
2021/11/22 09:46:58;;;;;;;0.30;0.20;;;;;;;8.23;95.41;100884.59;5052269;28;20880;-75
2021/11/22 09:49:25;;;;;;;0.30;0.20;;;;;;;8.25;94.90;100877.53;5038801;28;20475;-75
2021/11/22 09:51:52;;;;;;;0.30;0.20;;;;;;;7.99;94.66;100879.53;5040656;28;20456;-75
2021/11/22 09:54:19;;;;;;;0.30;0.20;;;;;;;8.02;95.64;100875.06;5062918;28;20443;-74
2021/11/22 09:56:49;;;;;;;0.30;0.20;;;;;;;8.16;96.34;100900.56;5041230;28;20514;-75
2021/11/22 09:59:17;;;;;;;0.30;0.20;;;;;;;7.96;94.62;100901.63;5056207;28;20473;-75
2021/11/22 10:01:44;;;;;;;0.23;0.20;;;;;;;7.77;94.59;100905.28;5058076;28;20451;-75
2021/11/22 10:04:16;;;;;;;0.30;0.20;;;;;;;7.79;94.92;100894.66;5044499;28;20586;-75
2021/11/22 10:06:47;;;;;;;0.30;0.20;;;;;;;8.08;94.63;100905.03;5045296;28;20516;-75
2021/11/22 10:09:45;;;;;;;0.30;0.20;;;;;;;8.24;95.59;100906.66;5040567;28;20798;-75
2021/11/22 10:12:13;;;;;;;0.30;0.20;;;;;;;7.96;94.14;100906.91;5038174;28;20454;-75
2021/11/22 10:14:47;;;;;;;0.30;0.20;;;;;;;7.97;95.59;100908.66;5039154;28;20502;-75
2021/11/22 10:17:28;;;;;;;0.30;0.20;;;;;;;8.09;95.85;100914.75;5039424;28;20474;-75
2021/11/22 10:20:10;;;;;;;0.30;0.20;;;;;;;7.92;96.65;100923.69;5038691;28;20472;-75
2021/11/22 10:22:51;;;;;;;0.30;0.20;;;;;;;7.96;95.83;100921.91;5039959;28;20451;-75
2021/11/22 10:25:44;;;;;;;0.30;0.20;;;;;;;7.92;95.40;100923.69;5038178;28;21081;-75
2021/11/22 10:28:14;;;;;;;0.30;0.20;;;;;;;7.98;95.63;100930.72;5037213;28;20911;-75
2021/11/22 10:30:53;;;;;;;0.20;0.10;;;;;;;7.94;96.16;100928.97;5051890;28;20442;-75
2021/11/22 10:33:23;;;;;;;0.30;0.20;;;;;;;8.07;95.03;100929.75;5031940;28;20971;-75
2021/11/22 10:35:53;;;;;;;0.30;0.20;;;;;;;7.90;94.20;100932.53;5045097;28;20450;-75
2021/11/22 10:38:41;;;;;;;0.30;0.20;;;;;;;7.80;94.92;100933.47;5039845;28;20471;-75
2021/11/22 10:41:12;;;;;;;0.30;0.20;;;;;;;7.93;95.63;100929.84;5038468;28;20447;-75
2021/11/22 10:43:49;;;;;;;0.30;0.10;;;;;;;8.01;94.42;100933.31;5051714;28;20536;-75
2021/11/22 10:46:22;;;;;;;0.30;0.20;;;;;;;7.93;94.51;100949.25;5037986;28;20857;-75
2021/11/22 10:48:51;;;;;;;0.30;0.20;;;;;;;7.82;93.39;100947.59;5039149;28;20507;-75
2021/11/22 10:51:28;;;;;;;0.30;0.20;;;;;;;7.88;92.69;100947.53;5047776;28;20481;-75
2021/11/22 10:54:03;;;;;;;0.30;0.20;;;;;;;7.86;92.38;100941.38;5065022;28;20464;-75
2021/11/22 10:56:37;;;;;;;0.30;0.20;;;;;;;7.77;92.97;100946.72;5045545;28;20937;-75
2021/11/22 10:59:08;;;;;;;0.30;0.20;;;;;;;7.84;93.92;100949.34;5055299;28;20470;-75
2021/11/22 11:01:47;;;;;;;0.30;0.30;;;;;;;7.81;93.63;100946.72;5063686;28;20454;-74
2021/11/22 11:04:31;;;;;;;0.30;0.20;;;;;;;7.83;93.56;100957.28;5040814;28;20926;-75
2021/11/22 11:07:02;;;;;;;0.30;0.20;;;;;;;7.78;92.33;100956.44;5041632;28;20462;-75
2021/11/22 11:09:40;;;;;;;0.30;0.20;;;;;;;7.82;93.57;100948.47;5044794;28;20472;-75
2021/11/22 11:12:13;;;;;;;0.30;0.10;;;;;;;7.80;92.32;100955.53;5048482;28;20447;-75
2021/11/22 11:14:48;;;;;;;0.30;0.20;;;;;;;8.09;92.85;100957.13;5047842;28;20446;-75
2021/11/22 11:17:28;;;;;;;0.30;0.20;;;;;;;7.87;92.27;100956.38;5042661;28;20462;-75
2021/11/22 11:19:57;;;;;;;0.30;0.20;;;;;;;7.98;91.67;100951.88;5040224;28;20505;-75
2021/11/22 11:22:26;;;;;;;0.30;0.20;;;;;;;7.96;90.88;100959.84;5045178;28;20455;-75
2021/11/22 11:24:57;;;;;;;0.30;0.20;;;;;;;7.95;91.27;100959.88;5047052;28;20531;-75
2021/11/22 11:27:34;;;;;;;0.30;0.20;;;;;;;8.11;91.90;100958.84;5046795;28;20450;-75
2021/11/22 11:30:01;;;;;;;0.30;0.13;;;;;;;8.28;91.37;100964.88;5039935;28;20510;-75
2021/11/22 11:32:29;;;;;;;0.30;0.20;;;;;;;8.14;89.89;100957.94;5050920;28;20504;-75
2021/11/22 11:34:56;;;;;;;0.30;0.20;;;;;;;8.20;90.44;100971.13;5041234;28;20446;-75
2021/11/22 11:37:29;;;;;;;0.30;0.20;;;;;;;8.24;88.85;100971.09;5041304;28;20485;-75